createdAt,value
2019-04-05T00:00:39.721Z,61.74
2019-04-05T00:03:11.462Z,59.43
2019-04-05T00:05:42.811Z,59.14
2019-04-05T00:08:14.029Z,59.24
2019-04-05T00:10:45.985Z,59.74
2019-04-05T00:13:17.224Z,60.30
2019-04-05T00:15:52.593Z,59.98
2019-04-05T00:18:23.881Z,60.55
2019-04-05T00:20:55.227Z,60.84
2019-04-05T00:23:26.446Z,60.90
2019-04-05T00:25:58.083Z,60.43
2019-04-05T00:28:29.530Z,59.61
2019-04-05T00:31:00.910Z,59.64
2019-04-05T00:33:32.276Z,60.24
2019-04-05T00:36:03.575Z,60.80
2019-04-05T00:38:35.906Z,61.00
2019-04-05T00:41:07.269Z,62.09
2019-04-05T00:43:38.724Z,60.78
2019-04-05T00:46:10.202Z,60.82
2019-04-05T00:48:41.665Z,61.31
2019-04-05T00:51:13.044Z,61.70
2019-04-05T00:53:44.511Z,62.99
2019-04-05T00:56:15.919Z,63.47
2019-04-05T00:58:47.197Z,63.32
2019-04-05T01:01:18.634Z,62.79
2019-04-05T01:03:50.010Z,63.07
2019-04-05T01:06:21.360Z,63.83
2019-04-05T01:08:52.653Z,64.01
2019-04-05T01:11:24.109Z,64.57
2019-04-05T01:13:55.460Z,65.10
2019-04-05T01:16:26.734Z,65.50
2019-04-05T01:18:58.163Z,65.76
2019-04-05T01:21:31.015Z,65.75
2019-04-05T01:24:02.744Z,65.86
2019-04-05T01:26:34.178Z,66.29
2019-04-05T01:29:05.527Z,66.59
2019-04-05T01:31:36.947Z,66.71
2019-04-05T01:34:08.316Z,66.89
2019-04-05T01:36:39.695Z,66.46
2019-04-05T01:39:11.069Z,66.23
2019-04-05T01:41:42.493Z,66.05
2019-04-05T01:44:13.815Z,66.02
2019-04-05T01:46:45.276Z,66.25
2019-04-05T01:49:16.555Z,66.30
2019-04-05T01:51:47.915Z,66.47
2019-04-05T01:54:19.226Z,66.57
2019-04-05T01:56:50.432Z,66.79
2019-04-05T01:59:21.787Z,66.73
2019-04-05T02:01:53.159Z,67.46
2019-04-05T02:04:24.565Z,67.73
2019-04-05T02:06:56.000Z,68.28
2019-04-05T02:09:27.345Z,68.43
2019-04-05T02:11:58.647Z,69.25
2019-04-05T02:14:30.070Z,69.42
2019-04-05T02:17:01.371Z,69.48
2019-04-05T02:19:32.712Z,69.61
2019-04-05T02:22:04.011Z,69.81
2019-04-05T02:24:35.435Z,70.06
2019-04-05T02:27:06.809Z,70.09
2019-04-05T02:29:38.185Z,68.78
2019-04-05T02:32:10.633Z,68.96
2019-04-05T02:34:41.924Z,69.35
2019-04-05T02:37:13.277Z,69.60
2019-04-05T02:39:44.685Z,69.92
2019-04-05T02:42:16.107Z,70.21
2019-04-05T02:44:47.455Z,70.36
2019-04-05T02:47:18.878Z,70.57
2019-04-05T02:49:50.220Z,69.55
2019-04-05T02:52:21.670Z,69.80
2019-04-05T02:54:53.000Z,70.28
2019-04-05T02:57:24.349Z,69.51
2019-04-05T02:59:55.670Z,67.96
2019-04-05T03:02:26.971Z,68.19
2019-04-05T03:04:58.294Z,68.38
2019-04-05T03:07:29.656Z,68.78
2019-04-05T03:10:01.071Z,69.21
2019-04-05T03:12:32.486Z,68.86
2019-04-05T03:15:04.480Z,68.86
2019-04-05T03:17:35.813Z,68.99
2019-04-05T03:20:07.403Z,69.17
2019-04-05T03:22:38.864Z,69.46
2019-04-05T03:25:10.132Z,69.74
2019-04-05T03:27:41.537Z,70.16
2019-04-05T03:30:12.829Z,70.35
2019-04-05T03:32:44.179Z,70.18
2019-04-05T03:35:15.616Z,69.45
2019-04-05T03:37:47.112Z,69.14
2019-04-05T03:40:18.563Z,69.18
2019-04-05T03:42:49.989Z,69.39
2019-04-05T03:45:21.273Z,68.34
2019-04-05T03:47:52.594Z,67.36
2019-04-05T03:50:23.885Z,65.26
2019-04-05T03:52:55.233Z,62.48
2019-04-05T03:55:26.659Z,59.34
2019-04-05T03:57:57.988Z,57.63
2019-04-05T04:00:29.350Z,57.52
2019-04-05T04:03:00.799Z,56.19
2019-04-05T04:05:32.219Z,54.62
2019-04-05T04:08:03.712Z,52.71
2019-04-05T04:10:35.009Z,51.59
2019-04-05T04:13:06.401Z,51.20
2019-04-05T04:15:37.791Z,50.70
2019-04-05T04:18:09.310Z,49.25
2019-04-05T04:20:49.255Z,48.59
2019-04-05T04:23:23.778Z,47.14
2019-04-05T04:25:55.204Z,46.87
2019-04-05T04:28:26.863Z,46.03
2019-04-05T04:30:58.201Z,45.11
2019-04-05T04:33:29.479Z,44.83
2019-04-05T04:36:01.499Z,44.20
2019-04-05T04:38:32.824Z,43.62
2019-04-05T04:41:04.117Z,41.41
2019-04-05T04:43:35.449Z,40.68
2019-04-05T04:46:07.511Z,40.76
2019-04-05T04:48:40.142Z,40.22
2019-04-05T04:51:11.439Z,39.37
2019-04-05T04:53:42.876Z,39.56
2019-04-05T04:56:14.264Z,40.51
2019-04-05T04:58:46.382Z,38.81
2019-04-05T05:01:17.845Z,37.69
2019-04-05T05:03:49.220Z,39.05
2019-04-05T05:06:20.657Z,38.42
2019-04-05T05:08:52.155Z,37.71
2019-04-05T05:11:23.398Z,37.09
2019-04-05T05:13:54.790Z,37.03
2019-04-05T05:16:26.012Z,37.24
2019-04-05T05:18:57.326Z,36.50
2019-04-05T05:21:28.563Z,36.54
2019-04-05T05:23:59.984Z,36.14
2019-04-05T05:26:31.294Z,36.63
2019-04-05T05:29:02.666Z,36.78
2019-04-05T05:31:33.965Z,35.71
2019-04-05T05:34:06.321Z,36.53
2019-04-05T05:36:37.676Z,35.13
2019-04-05T05:39:09.108Z,34.56
2019-04-05T05:41:40.504Z,34.62
2019-04-05T05:44:11.805Z,34.26
2019-04-05T05:46:43.107Z,35.55
2019-04-05T05:49:14.463Z,35.76
2019-04-05T05:51:47.124Z,33.91
2019-04-05T05:54:18.366Z,34.61
2019-04-05T05:56:49.834Z,36.09
2019-04-05T05:59:21.130Z,37.30
2019-04-05T06:01:52.553Z,34.78
2019-04-05T06:04:23.920Z,35.62
2019-04-05T06:06:55.288Z,35.12
2019-04-05T06:09:27.269Z,35.59
2019-04-05T06:11:58.687Z,34.23
2019-04-05T06:14:30.152Z,34.08
2019-04-05T06:17:02.828Z,33.86
2019-04-05T06:19:35.167Z,33.52
2019-04-05T06:22:06.538Z,33.14
2019-04-05T06:24:37.847Z,31.73
2019-04-05T06:27:09.214Z,32.27
2019-04-05T06:29:40.504Z,29.67
2019-04-05T06:32:11.978Z,27.76
2019-04-05T06:34:44.935Z,27.72
2019-04-05T06:37:18.055Z,27.59
2019-04-05T06:39:49.528Z,29.27
2019-04-05T06:42:20.899Z,27.86
2019-04-05T06:44:52.359Z,25.79
2019-04-05T06:47:23.633Z,24.63
2019-04-05T06:49:54.923Z,22.54
2019-04-05T06:52:26.213Z,24.77
2019-04-05T06:54:57.614Z,26.44
2019-04-05T06:57:29.353Z,26.83
2019-04-05T07:00:00.752Z,24.36
2019-04-05T07:02:33.679Z,24.98
2019-04-05T07:05:06.856Z,24.38
2019-04-05T07:07:38.270Z,24.26
2019-04-05T07:10:09.628Z,24.20
2019-04-05T07:12:40.956Z,22.59
2019-04-05T07:15:12.239Z,22.35
2019-04-05T07:17:43.698Z,23.49
2019-04-05T07:20:15.741Z,23.49
2019-04-05T07:22:47.087Z,22.42
2019-04-05T07:25:19.334Z,23.20
2019-04-05T07:27:50.616Z,23.25
2019-04-05T07:30:22.051Z,24.85
2019-04-05T07:32:53.358Z,24.26
2019-04-05T07:35:33.228Z,23.22
2019-04-05T07:37:57.750Z,23.44
2019-04-05T07:40:29.156Z,24.32
2019-04-05T07:43:00.504Z,21.04
2019-04-05T07:45:32.930Z,20.84
2019-04-05T07:48:05.201Z,20.50
2019-04-05T07:50:36.819Z,22.75
2019-04-05T07:53:08.167Z,22.69
2019-04-05T07:55:39.520Z,22.96
2019-04-05T07:58:10.877Z,26.75
2019-04-05T08:00:46.283Z,20.27
2019-04-05T08:03:18.347Z,22.29
2019-04-05T08:05:50.024Z,23.09
2019-04-05T08:08:41.330Z,20.68
2019-04-05T08:11:12.741Z,20.73
2019-04-05T08:13:44.289Z,20.96
2019-04-05T08:16:15.543Z,23.47
2019-04-05T08:18:57.122Z,22.74
2019-04-05T08:21:19.956Z,21.23
2019-04-05T08:23:51.237Z,20.99
2019-04-05T08:26:22.767Z,21.92
2019-04-05T08:28:54.051Z,20.70
2019-04-05T08:31:25.315Z,21.25
2019-04-05T08:33:58.275Z,20.80
2019-04-05T08:36:32.594Z,21.50
2019-04-05T08:39:02.674Z,21.98
2019-04-05T08:41:34.645Z,20.18
2019-04-05T08:44:06.018Z,20.79
2019-04-05T08:46:37.291Z,21.02
2019-04-05T08:49:10.946Z,16.65
2019-04-05T08:51:41.694Z,19.56
2019-04-05T08:54:12.961Z,23.30
2019-04-05T08:56:44.309Z,23.24
2019-04-05T08:59:15.947Z,19.44
2019-04-05T09:01:47.082Z,21.67
2019-04-05T09:04:18.457Z,20.41
2019-04-05T09:06:49.776Z,20.31
2019-04-05T09:09:20.994Z,19.05
2019-04-05T09:11:53.192Z,19.36
2019-04-05T09:14:24.618Z,19.05
2019-04-05T09:16:55.866Z,21.71
2019-04-05T09:19:27.284Z,20.82
2019-04-05T09:21:59.831Z,20.92
2019-04-05T09:24:31.115Z,19.96
2019-04-05T09:27:02.542Z,24.16
2019-04-05T09:29:33.762Z,21.69
2019-04-05T09:32:05.197Z,23.59
2019-04-05T09:34:36.589Z,23.19
2019-04-05T09:37:08.426Z,24.11
2019-04-05T09:39:40.715Z,21.83
2019-04-05T09:42:13.188Z,21.53
2019-04-05T09:44:44.501Z,22.81
2019-04-05T09:47:16.009Z,22.52
2019-04-05T09:49:47.283Z,23.16
2019-04-05T09:52:18.616Z,22.20
2019-04-05T09:54:50.752Z,24.65
2019-04-05T09:57:22.081Z,23.74
2019-04-05T09:59:53.467Z,23.37
2019-04-05T10:02:24.825Z,23.88
2019-04-05T10:04:56.097Z,23.10
2019-04-05T10:07:27.435Z,22.83
2019-04-05T10:09:58.738Z,23.27
2019-04-05T10:12:30.199Z,23.32
2019-04-05T10:15:01.476Z,24.94
2019-04-05T10:17:33.912Z,24.55
2019-04-05T10:20:06.929Z,26.41
2019-04-05T10:22:38.239Z,24.21
2019-04-05T10:25:09.519Z,25.55
2019-04-05T10:27:40.951Z,23.80
2019-04-05T10:30:12.182Z,24.98
2019-04-05T10:32:45.961Z,25.81
2019-04-05T10:35:16.485Z,24.57
2019-04-05T10:37:47.734Z,23.84
2019-04-05T10:40:19.130Z,23.51
2019-04-05T10:42:50.538Z,24.82
2019-04-05T10:45:21.849Z,24.44
2019-04-05T10:47:54.202Z,25.51
2019-04-05T10:50:25.416Z,26.63
2019-04-05T10:52:56.750Z,25.87
2019-04-05T10:55:28.038Z,25.30
2019-04-05T10:57:59.291Z,23.33
2019-04-05T11:00:30.558Z,24.68
2019-04-05T11:03:01.906Z,25.26
2019-04-05T11:05:33.161Z,24.00
2019-04-05T11:08:04.559Z,25.06
2019-04-05T11:10:35.894Z,24.17
2019-04-05T11:13:07.193Z,25.10
2019-04-05T11:15:38.445Z,24.97
2019-04-05T11:18:09.792Z,23.01
2019-04-05T11:20:40.953Z,24.21
2019-04-05T11:23:13.242Z,23.92
2019-04-05T11:25:52.977Z,24.06
2019-04-05T11:28:25.757Z,26.55
2019-04-05T11:30:56.966Z,24.98
2019-04-05T11:33:28.306Z,23.49
2019-04-05T11:35:59.584Z,22.76
2019-04-05T11:38:30.975Z,24.02
2019-04-05T11:41:02.273Z,25.05
2019-04-05T11:43:34.103Z,24.21
2019-04-05T11:46:05.296Z,24.04
2019-04-05T11:48:37.762Z,24.47
2019-04-05T11:51:09.072Z,25.12
2019-04-05T11:53:40.361Z,25.07
2019-04-05T11:56:14.796Z,24.89
2019-04-05T11:58:48.655Z,26.49
2019-04-05T12:01:37.347Z,25.32
2019-04-05T12:04:08.702Z,26.01
2019-04-05T12:06:40.047Z,24.59
2019-04-05T12:09:11.400Z,24.05
2019-04-05T12:11:42.742Z,23.92
2019-04-05T12:14:14.093Z,23.09
2019-04-05T12:16:45.372Z,23.48
2019-04-05T12:19:16.718Z,23.45
2019-04-05T12:21:48.033Z,23.56
2019-04-05T12:24:21.958Z,23.32
2019-04-05T12:26:53.265Z,23.45
2019-04-05T12:29:24.536Z,22.91
2019-04-05T12:31:56.931Z,22.58
2019-04-05T12:34:28.691Z,24.64
2019-04-05T12:37:00.431Z,22.91
2019-04-05T12:39:31.797Z,22.58
2019-04-05T12:42:03.142Z,22.36
2019-04-05T12:44:34.420Z,22.77
2019-04-05T12:47:05.854Z,23.05
2019-04-05T12:49:37.181Z,23.57
2019-04-05T12:52:21.588Z,23.26
2019-04-05T12:54:41.783Z,22.65
2019-04-05T12:57:13.288Z,22.77
2019-04-05T12:59:44.573Z,21.76
2019-04-05T13:02:20.599Z,23.52
2019-04-05T13:04:50.132Z,22.76
2019-04-05T13:07:22.790Z,23.94
2019-04-05T13:09:56.591Z,23.82
2019-04-05T13:12:27.932Z,23.81
2019-04-05T13:15:11.213Z,23.44
2019-04-05T13:17:32.373Z,22.97
2019-04-05T13:20:05.020Z,21.69
2019-04-05T13:22:36.348Z,21.70
2019-04-05T13:25:10.843Z,24.07
2019-04-05T13:27:42.278Z,23.69
2019-04-05T13:30:13.993Z,24.97
2019-04-05T13:32:46.468Z,23.54
2019-04-05T13:35:17.701Z,26.51
2019-04-05T13:37:49.120Z,23.43
2019-04-05T13:40:20.369Z,22.34
2019-04-05T13:42:51.654Z,25.53
2019-04-05T13:45:22.946Z,25.40
2019-04-05T13:47:54.372Z,24.39
2019-04-05T13:50:25.728Z,25.46
2019-04-05T13:52:57.029Z,24.61
2019-04-05T13:55:28.382Z,22.82
2019-04-05T13:58:00.968Z,23.24
2019-04-05T14:00:32.666Z,23.02
2019-04-05T14:03:04.458Z,23.93
2019-04-05T14:05:36.331Z,24.00
2019-04-05T14:08:11.047Z,23.21
2019-04-05T14:10:41.901Z,22.97
2019-04-05T14:13:13.584Z,23.88
2019-04-05T14:15:44.852Z,24.01
2019-04-05T14:18:16.177Z,25.25
2019-04-05T14:20:49.583Z,24.36
2019-04-05T14:23:24.089Z,23.75
2019-04-05T14:26:00.340Z,23.61
2019-04-05T14:28:34.011Z,24.58
2019-04-05T14:31:05.425Z,24.83
2019-04-05T14:33:36.879Z,25.89
2019-04-05T14:36:08.265Z,25.71
2019-04-05T14:38:39.693Z,24.80
2019-04-05T14:41:11.009Z,24.91
2019-04-05T14:43:44.540Z,26.67
2019-04-05T14:46:17.600Z,25.83
2019-04-05T14:48:49.021Z,26.10
2019-04-05T14:51:20.322Z,26.12
2019-04-05T14:53:51.665Z,26.51
2019-04-05T14:56:22.986Z,26.53
2019-04-05T14:58:55.340Z,26.02
2019-04-05T15:01:26.577Z,24.53
2019-04-05T15:03:57.882Z,24.32
2019-04-05T15:06:29.307Z,24.71
2019-04-05T15:09:02.189Z,25.74
2019-04-05T15:11:34.896Z,25.27
2019-04-05T15:14:06.127Z,25.09
2019-04-05T15:16:39.733Z,24.47
2019-04-05T15:19:12.437Z,25.08
2019-04-05T15:21:44.982Z,24.11
2019-04-05T15:24:17.182Z,24.09
2019-04-05T15:26:51.510Z,24.14
2019-04-05T15:29:25.861Z,24.49
2019-04-05T15:31:56.383Z,24.70
2019-04-05T15:34:29.027Z,24.33
2019-04-05T15:37:01.562Z,24.59
2019-04-05T15:39:33.794Z,24.67
2019-04-05T15:42:06.721Z,25.25
2019-04-05T15:44:38.105Z,26.92
2019-04-05T15:47:09.541Z,27.92
2019-04-05T15:49:41.228Z,28.84
2019-04-05T15:52:18.674Z,29.24
2019-04-05T15:54:45.522Z,29.52
2019-04-05T15:57:16.960Z,29.81
2019-04-05T15:59:48.328Z,29.71
2019-04-05T16:02:19.734Z,29.99
2019-04-05T16:04:52.593Z,30.15
2019-04-05T16:07:23.952Z,29.98
2019-04-05T16:09:55.257Z,29.94
2019-04-05T16:12:26.462Z,29.67
2019-04-05T16:14:57.841Z,29.50
2019-04-05T16:17:32.913Z,29.49
2019-04-05T16:20:08.986Z,29.51
2019-04-05T16:22:40.403Z,30.01
2019-04-05T16:25:11.656Z,30.01
2019-04-05T16:27:43.003Z,29.83
2019-04-05T16:30:15.362Z,29.91
2019-04-05T16:32:46.655Z,29.81
2019-04-05T16:35:18.614Z,29.90
2019-04-05T16:37:49.754Z,29.67
2019-04-05T16:40:21.990Z,29.69
2019-04-05T16:43:02.393Z,29.69
2019-04-05T16:45:28.406Z,29.64
2019-04-05T16:47:59.639Z,29.62
2019-04-05T16:50:32.049Z,29.50
2019-04-05T16:53:03.838Z,29.70
2019-04-05T16:55:36.755Z,29.90
2019-04-05T16:58:08.850Z,29.83
2019-04-05T17:00:41.173Z,29.93
2019-04-05T17:03:12.489Z,30.03
2019-04-05T17:05:43.953Z,29.94
2019-04-05T17:08:15.273Z,30.02
2019-04-05T17:10:46.748Z,30.37
2019-04-05T17:13:18.073Z,30.55
2019-04-05T17:15:49.425Z,30.81
2019-04-05T17:18:20.734Z,31.06
2019-04-05T17:20:52.092Z,31.37
2019-04-05T17:23:23.553Z,31.54
2019-04-05T17:25:54.847Z,31.70
2019-04-05T17:28:28.403Z,31.77
2019-04-05T17:31:00.798Z,31.87
2019-04-05T17:33:35.505Z,32.11
2019-04-05T17:36:06.889Z,32.28
2019-04-05T17:38:39.323Z,32.51
2019-04-05T17:41:12.062Z,32.64
2019-04-05T17:43:45.037Z,32.76
2019-04-05T17:46:16.416Z,32.92
2019-04-05T17:48:51.736Z,33.13
2019-04-05T17:51:23.513Z,33.26
2019-04-05T17:53:56.193Z,33.42
2019-04-05T17:56:27.518Z,33.48
2019-04-05T17:58:58.797Z,33.59
2019-04-05T18:01:30.195Z,33.80
2019-04-05T18:04:01.522Z,34.07
2019-04-05T18:06:32.934Z,34.37
2019-04-05T18:09:05.544Z,34.79
2019-04-05T18:11:37.450Z,35.38
2019-04-05T18:14:08.834Z,36.53
2019-04-05T18:16:40.192Z,36.85
2019-04-05T18:19:11.608Z,37.06
2019-04-05T18:21:44.065Z,37.05
2019-04-05T18:24:15.381Z,37.38
2019-04-05T18:26:46.684Z,37.38
2019-04-05T18:29:20.633Z,38.46
2019-04-05T18:31:54.955Z,39.19
2019-04-05T18:34:28.200Z,39.10
2019-04-05T18:37:00.920Z,39.00
2019-04-05T18:39:32.311Z,39.31
2019-04-05T18:42:05.227Z,39.41
2019-04-05T18:44:36.541Z,39.42
2019-04-05T18:47:08.975Z,39.58
2019-04-05T18:49:42.120Z,39.82
2019-04-05T18:52:13.828Z,40.05
2019-04-05T18:54:45.264Z,40.79
2019-04-05T18:57:16.587Z,40.99
2019-04-05T18:59:48.001Z,41.20
2019-04-05T19:02:19.415Z,42.86
2019-04-05T19:04:51.321Z,43.21
2019-04-05T19:07:23.929Z,42.64
2019-04-05T19:09:55.292Z,41.01
2019-04-05T19:12:26.690Z,40.04
2019-04-05T19:14:59.254Z,39.65
2019-04-05T19:17:31.037Z,39.47
2019-04-05T19:20:04.112Z,39.98
2019-04-05T19:22:35.940Z,40.55
2019-04-05T19:25:08.762Z,39.88
2019-04-05T19:27:40.116Z,39.86
2019-04-05T19:50:37.824Z,39.59
2019-04-05T19:53:11.034Z,40.26
2019-04-05T19:55:42.428Z,40.63
2019-04-05T19:58:13.679Z,40.98
2019-04-05T20:00:44.964Z,41.34
2019-04-05T20:03:16.371Z,41.88
2019-04-05T20:05:47.785Z,42.76
2019-04-05T20:08:19.446Z,43.10
2019-04-05T20:10:51.346Z,43.48
2019-04-05T20:13:22.798Z,43.39
2019-04-05T20:15:54.492Z,43.56
2019-04-05T20:18:26.089Z,42.69
2019-04-05T20:20:59.084Z,42.60
2019-04-05T20:23:30.716Z,41.61
2019-04-05T20:26:02.038Z,41.51
2019-04-05T20:28:33.458Z,41.33
2019-04-05T20:31:04.981Z,41.61
2019-04-05T20:33:36.561Z,41.76
2019-04-05T20:36:09.069Z,42.00
2019-04-05T20:38:40.402Z,42.10
2019-04-05T20:41:11.730Z,42.45
2019-04-05T20:43:45.291Z,42.75
2019-04-05T20:46:17.015Z,42.74
2019-04-05T20:48:48.347Z,43.09
2019-04-05T20:51:20.651Z,43.90
2019-04-05T20:53:55.473Z,44.49
2019-04-05T20:56:27.441Z,45.48
2019-04-05T20:58:58.794Z,46.51
2019-04-05T21:01:30.255Z,46.57
2019-04-05T21:04:01.459Z,46.66
2019-04-05T21:06:32.928Z,46.96
2019-04-05T21:09:05.967Z,46.89
2019-04-05T21:11:38.058Z,47.04
2019-04-05T21:14:09.763Z,47.44
2019-04-05T21:16:41.115Z,47.35
2019-04-05T21:19:12.846Z,46.84
2019-04-05T21:21:44.269Z,46.05
2019-04-05T21:24:16.279Z,45.79
2019-04-05T21:26:47.712Z,47.85
2019-04-05T21:29:19.022Z,49.16
2019-04-05T21:31:50.485Z,49.53
2019-04-05T21:34:21.772Z,47.07
2019-04-05T21:36:53.078Z,47.27
2019-04-05T21:39:24.505Z,48.38
2019-04-05T21:41:57.836Z,47.50
2019-04-05T21:44:29.228Z,48.91
2019-04-05T21:47:00.455Z,48.74
2019-04-05T21:49:31.711Z,48.20
2019-04-05T21:52:03.258Z,48.07
2019-04-05T21:54:34.879Z,48.41
2019-04-05T21:57:06.391Z,48.25
2019-04-05T21:59:37.947Z,47.50
2019-04-05T22:02:09.503Z,47.06
2019-04-05T22:04:41.067Z,47.10
2019-04-05T22:07:12.771Z,49.24
2019-04-05T22:09:44.358Z,48.76
2019-04-05T22:12:16.165Z,48.66
2019-04-05T22:14:47.747Z,48.87
2019-04-05T22:17:19.286Z,49.64
2019-04-05T22:19:50.912Z,50.16
2019-04-05T22:22:22.494Z,50.43
2019-04-05T22:24:59.243Z,50.65
2019-04-05T22:27:27.267Z,51.68
2019-04-05T22:29:58.835Z,52.51
2019-04-05T22:32:30.443Z,52.52
2019-04-05T22:35:02.168Z,53.40
2019-04-05T22:37:33.748Z,54.85
2019-04-05T22:40:06.872Z,53.00
2019-04-05T22:42:38.450Z,52.53
2019-04-05T22:45:10.180Z,52.39
2019-04-05T22:47:41.693Z,52.57
2019-04-05T22:50:14.149Z,54.50
2019-04-05T22:52:46.954Z,55.60
2019-04-05T22:55:18.607Z,56.16
2019-04-05T22:57:50.148Z,57.03
2019-04-05T23:00:21.875Z,56.99
2019-04-05T23:02:53.426Z,57.72
2019-04-05T23:05:25.039Z,57.50
2019-04-05T23:07:56.667Z,57.58
2019-04-05T23:10:28.186Z,58.34
2019-04-05T23:12:59.732Z,59.08
2019-04-05T23:15:31.311Z,56.93
2019-04-05T23:18:02.940Z,57.43
2019-04-05T23:20:34.608Z,57.74
2019-04-05T23:23:06.176Z,55.56
2019-04-05T23:25:37.832Z,55.08
2019-04-05T23:28:09.375Z,55.38
2019-04-05T23:30:41.038Z,56.03
2019-04-05T23:33:12.620Z,56.00
2019-04-05T23:35:44.205Z,55.72
2019-04-05T23:38:15.818Z,54.34
2019-04-05T23:40:47.379Z,53.62
2019-04-05T23:43:18.950Z,53.00
2019-04-05T23:45:50.589Z,52.96
2019-04-05T23:48:22.157Z,54.03
2019-04-05T23:50:53.737Z,54.85
2019-04-05T23:53:25.237Z,55.73
2019-04-05T23:55:57.868Z,55.67
2019-04-05T23:58:29.412Z,55.78
